Mackinaw City, MI

5:04 AM EDT on March 26, 2017 (GMT -0400)
Mackinac Bridge | | Change Station
Active Advisory: Winter Weather Advisory

Elev 587 ft 45.79 °N, 84.73 °W | Updated 16 seconds ago

Ice Pellets
Ice Pellets
32.9 °F
Feels Like 25 °F
N
9.0
Wind Variable Wind from North

Today
High -- | Low -- °F
--% Chance of Precip.
Yesterday
High -- | Low -- °F
Precip. -- in
Pressure 30.11 in
Visibility 4.0 miles
Clouds Overcast 800 ft
Windchill 25 °F
Dew Point 31 °F
Humidity 93%
Rainfall Not available.
Snow Depth Not available.
7:29 AM 7:59 PM
Waning Crescent, 4% visible
METAR KMCD 260855Z AUTO 10019G30KT 4SM -SN OVC008 00/00 A3011 RMK AO2 P0002 60003 T00000000
Pressure 30.11 in
Visibility 4.0 miles
Clouds Overcast 800 ft
Windchill 25 °F
Dew Point 31 °F
Humidity 93%
Rainfall Not available.
Snow Depth Not available.
7:29 AM 7:59 PM
Waning Crescent, 4% visible
METAR KMCD 260855Z AUTO 10019G30KT 4SM -SN OVC008 00/00 A3011 RMK AO2 P0002 60003 T00000000

Get Your Daily Forecast Email!

Thanks for signing up!

Be on the lookout for a verification email in your inbox.

You'll start receiving severe weather alerts in your inbox..

×

10-Day Weather Forecast

Almanac

Astronomy

Mar. 26, 2017 Rise Set
Actual Time
Civil Twilight
Nautical Twilight
Astronomical Twilight
Moon
Length of Visible Light
Length of Day
Tomorrow will be .
, % of the Moon is Illuminated

Today's Extremes

State Highs State Lows

Community

WunderPhotos

Upload Photos

1,962,540 photos uploaded!

WunderBlog® & News

Nearby

Air Quality

  Air Quality AQ Index Pollutant
Not available.

Snow Depth

Station Depth Elevation

Earthquake Activity

City Distance Mag. Time & Date
Minimum magnitude displayed is 2.5.

Earthquake Activity

City Distance Mag. Time & Date
Minimum magnitude displayed is 2.5.

Coastal Water Temperatures

Place Temperature

Stations

Nearby Weather Stations

Station Location Temp. Windchill Dew Point Humidity Wind Precip. Elev Updated Type
                   

Watches & Warnings

Winter Weather Advisory
Issued: 3:58 AM EDT Mar. 26, 2017 – National Weather Service

... Winter Weather Advisory remains in effect until 8 am EDT this
morning...

A Winter Weather Advisory for freezing rain remains in effect
until 8 am EDT this morning.

* Light freezing rain will continue through early morning.

* Ice accumulations of under one tenth of an inch are expected.

* The ice will result in slick Road conditions.

Precautionary/preparedness actions...

A Winter Weather Advisory means that freezing rain will cause
travel difficulties. Be prepared for slippery roads.